sensor_id;sensor_type;location;lat;lon;timestamp;temperature;humidity
56103;DHT22;41970;48.774;9.280;2023-03-14T00:02:22;10.60;99.90
56103;DHT22;41970;48.774;9.280;2023-03-14T00:04:48;10.60;99.90
56103;DHT22;41970;48.774;9.280;2023-03-14T00:07:14;10.60;99.90
56103;DHT22;41970;48.774;9.280;2023-03-14T00:09:40;10.40;99.90
56103;DHT22;41970;48.774;9.280;2023-03-14T00:12:06;10.40;99.90
56103;DHT22;41970;48.774;9.280;2023-03-14T00:14:32;10.40;99.90
56103;DHT22;41970;48.774;9.280;2023-03-14T00:16:58;10.40;99.90
56103;DHT22;41970;48.774;9.280;2023-03-14T00:19:24;10.50;99.90
56103;DHT22;41970;48.774;9.280;2023-03-14T00:21:49;10.50;99.90
56103;DHT22;41970;48.774;9.280;2023-03-14T00:24:15;10.60;99.90
56103;DHT22;41970;48.774;9.280;2023-03-14T00:26:41;10.60;99.90
56103;DHT22;41970;48.774;9.280;2023-03-14T00:29:07;10.60;99.90
56103;DHT22;41970;48.774;9.280;2023-03-14T00:31:32;10.60;99.90
56103;DHT22;41970;48.774;9.280;2023-03-14T00:33:58;10.60;99.90
56103;DHT22;41970;48.774;9.280;2023-03-14T00:36:24;10.60;99.90
56103;DHT22;41970;48.774;9.280;2023-03-14T00:38:51;10.60;99.90
56103;DHT22;41970;48.774;9.280;2023-03-14T00:41:19;10.70;99.90
56103;DHT22;41970;48.774;9.280;2023-03-14T00:43:46;10.70;99.90
56103;DHT22;41970;48.774;9.280;2023-03-14T00:46:12;10.80;99.90
56103;DHT22;41970;48.774;9.280;2023-03-14T00:48:38;10.80;99.90
56103;DHT22;41970;48.774;9.280;2023-03-14T00:51:06;10.80;99.90
56103;DHT22;41970;48.774;9.280;2023-03-14T00:53:36;10.80;99.90
56103;DHT22;41970;48.774;9.280;2023-03-14T00:56:03;10.90;99.90
56103;DHT22;41970;48.774;9.280;2023-03-14T00:58:30;11.00;99.90
56103;DHT22;41970;48.774;9.280;2023-03-14T01:00:55;11.10;99.90
56103;DHT22;41970;48.774;9.280;2023-03-14T01:03:21;11.10;99.90
56103;DHT22;41970;48.774;9.280;2023-03-14T01:05:47;11.20;99.90
56103;DHT22;41970;48.774;9.280;2023-03-14T01:08:13;11.10;99.90
56103;DHT22;41970;48.774;9.280;2023-03-14T01:10:40;11.20;99.90
56103;DHT22;41970;48.774;9.280;2023-03-14T01:13:07;11.20;99.90
56103;DHT22;41970;48.774;9.280;2023-03-14T01:15:34;11.20;99.90
56103;DHT22;41970;48.774;9.280;2023-03-14T01:18:00;11.30;99.90
56103;DHT22;41970;48.774;9.280;2023-03-14T01:20:26;11.30;99.90
56103;DHT22;41970;48.774;9.280;2023-03-14T01:22:51;11.30;99.90
56103;DHT22;41970;48.774;9.280;2023-03-14T01:25:18;11.30;99.90
56103;DHT22;41970;48.774;9.280;2023-03-14T01:27:44;11.30;99.90
56103;DHT22;41970;48.774;9.280;2023-03-14T01:30:11;11.40;99.90
56103;DHT22;41970;48.774;9.280;2023-03-14T01:32:37;11.40;99.90
56103;DHT22;41970;48.774;9.280;2023-03-14T01:35:03;11.40;99.90
56103;DHT22;41970;48.774;9.280;2023-03-14T01:37:29;11.40;99.90
56103;DHT22;41970;48.774;9.280;2023-03-14T01:39:55;11.40;99.90
56103;DHT22;41970;48.774;9.280;2023-03-14T01:42:21;11.40;99.90
56103;DHT22;41970;48.774;9.280;2023-03-14T01:44:53;11.30;99.90
56103;DHT22;41970;48.774;9.280;2023-03-14T01:47:20;11.20;99.90
56103;DHT22;41970;48.774;9.280;2023-03-14T01:49:49;11.30;99.90
56103;DHT22;41970;48.774;9.280;2023-03-14T01:52:21;11.30;99.90
56103;DHT22;41970;48.774;9.280;2023-03-14T01:54:58;11.20;99.90
56103;DHT22;41970;48.774;9.280;2023-03-14T01:57:36;11.20;99.90
56103;DHT22;41970;48.774;9.280;2023-03-14T02:00:06;11.10;99.90
56103;DHT22;41970;48.774;9.280;2023-03-14T02:02:48;11.10;99.90
56103;DHT22;41970;48.774;9.280;2023-03-14T02:05:18;11.10;99.90
56103;DHT22;41970;48.774;9.280;2023-03-14T02:07:56;11.10;99.90
56103;DHT22;41970;48.774;9.280;2023-03-14T02:10:25;11.10;99.90
56103;DHT22;41970;48.774;9.280;2023-03-14T02:12:54;11.10;99.90
56103;DHT22;41970;48.774;9.280;2023-03-14T02:15:21;11.00;99.90
56103;DHT22;41970;48.774;9.280;2023-03-14T02:17:47;11.10;99.90
56103;DHT22;41970;48.774;9.280;2023-03-14T02:23:08;11.10;99.90
56103;DHT22;41970;48.774;9.280;2023-03-14T02:25:58;11.10;99.90
56103;DHT22;41970;48.774;9.280;2023-03-14T02:28:26;11.20;99.90
56103;DHT22;41970;48.774;9.280;2023-03-14T02:30:52;11.20;99.90
56103;DHT22;41970;48.774;9.280;2023-03-14T02:33:20;11.20;99.90
56103;DHT22;41970;48.774;9.280;2023-03-14T02:35:59;11.20;99.90
56103;DHT22;41970;48.774;9.280;2023-03-14T02:38:36;11.20;99.90
56103;DHT22;41970;48.774;9.280;2023-03-14T02:41:03;11.20;99.90
56103;DHT22;41970;48.774;9.280;2023-03-14T02:43:29;11.00;99.90
56103;DHT22;41970;48.774;9.280;2023-03-14T02:45:55;10.90;99.90
56103;DHT22;41970;48.774;9.280;2023-03-14T02:48:25;11.00;99.90
56103;DHT22;41970;48.774;9.280;2023-03-14T02:50:54;11.00;99.90
56103;DHT22;41970;48.774;9.280;2023-03-14T02:53:25;11.00;99.90
56103;DHT22;41970;48.774;9.280;2023-03-14T02:55:52;10.80;99.90
56103;DHT22;41970;48.774;9.280;2023-03-14T02:58:18;10.80;99.90
56103;DHT22;41970;48.774;9.280;2023-03-14T03:00:44;10.80;99.90
56103;DHT22;41970;48.774;9.280;2023-03-14T03:03:11;10.80;99.90
56103;DHT22;41970;48.774;9.280;2023-03-14T03:05:36;10.90;99.90
56103;DHT22;41970;48.774;9.280;2023-03-14T03:08:03;10.80;99.90
56103;DHT22;41970;48.774;9.280;2023-03-14T03:10:29;10.80;99.90
56103;DHT22;41970;48.774;9.280;2023-03-14T03:12:55;10.70;99.90
56103;DHT22;41970;48.774;9.280;2023-03-14T03:15:21;10.60;99.90
56103;DHT22;41970;48.774;9.280;2023-03-14T03:17:47;10.60;99.90
56103;DHT22;41970;48.774;9.280;2023-03-14T03:20:13;10.70;99.90
56103;DHT22;41970;48.774;9.280;2023-03-14T03:22:39;10.60;99.90
56103;DHT22;41970;48.774;9.280;2023-03-14T03:25:06;10.60;99.90
56103;DHT22;41970;48.774;9.280;2023-03-14T03:27:33;10.60;99.90
56103;DHT22;41970;48.774;9.280;2023-03-14T03:30:00;10.70;99.90
56103;DHT22;41970;48.774;9.280;2023-03-14T03:32:26;10.80;99.90
56103;DHT22;41970;48.774;9.280;2023-03-14T03:34:52;10.80;99.90
56103;DHT22;41970;48.774;9.280;2023-03-14T03:37:18;10.80;99.90
56103;DHT22;41970;48.774;9.280;2023-03-14T03:39:44;10.70;99.90
56103;DHT22;41970;48.774;9.280;2023-03-14T03:42:12;10.70;99.90
56103;DHT22;41970;48.774;9.280;2023-03-14T03:44:37;10.80;99.90
56103;DHT22;41970;48.774;9.280;2023-03-14T03:47:03;10.70;99.90
56103;DHT22;41970;48.774;9.280;2023-03-14T03:49:32;10.70;99.90
56103;DHT22;41970;48.774;9.280;2023-03-14T03:51:58;10.70;99.90
56103;DHT22;41970;48.774;9.280;2023-03-14T03:54:24;10.80;99.90
56103;DHT22;41970;48.774;9.280;2023-03-14T03:56:50;10.80;99.90
56103;DHT22;41970;48.774;9.280;2023-03-14T03:59:16;10.60;99.90
56103;DHT22;41970;48.774;9.280;2023-03-14T04:01:42;10.50;99.90
56103;DHT22;41970;48.774;9.280;2023-03-14T04:04:08;10.60;99.90
56103;DHT22;41970;48.774;9.280;2023-03-14T04:06:37;10.60;99.90
56103;DHT22;41970;48.774;9.280;2023-03-14T04:09:03;10.70;99.90
56103;DHT22;41970;48.774;9.280;2023-03-14T04:11:29;10.70;99.90
56103;DHT22;41970;48.774;9.280;2023-03-14T04:13:55;10.60;99.90
56103;DHT22;41970;48.774;9.280;2023-03-14T04:16:23;10.60;99.90
56103;DHT22;41970;48.774;9.280;2023-03-14T04:18:49;10.50;99.90
56103;DHT22;41970;48.774;9.280;2023-03-14T04:21:16;10.40;99.90
56103;DHT22;41970;48.774;9.280;2023-03-14T04:23:41;10.50;99.90
56103;DHT22;41970;48.774;9.280;2023-03-14T04:26:07;10.30;99.90
56103;DHT22;41970;48.774;9.280;2023-03-14T04:28:33;10.30;99.90
56103;DHT22;41970;48.774;9.280;2023-03-14T04:31:10;10.30;99.90
56103;DHT22;41970;48.774;9.280;2023-03-14T04:33:36;10.30;99.90
56103;DHT22;41970;48.774;9.280;2023-03-14T04:36:03;10.30;99.90
56103;DHT22;41970;48.774;9.280;2023-03-14T04:38:29;10.30;99.90
56103;DHT22;41970;48.774;9.280;2023-03-14T04:40:55;10.30;99.90
56103;DHT22;41970;48.774;9.280;2023-03-14T04:43:21;10.30;99.90
56103;DHT22;41970;48.774;9.280;2023-03-14T04:45:47;10.30;99.90
56103;DHT22;41970;48.774;9.280;2023-03-14T04:48:12;10.30;99.90
56103;DHT22;41970;48.774;9.280;2023-03-14T04:50:39;10.10;99.90
56103;DHT22;41970;48.774;9.280;2023-03-14T04:53:05;10.10;99.90
56103;DHT22;41970;48.774;9.280;2023-03-14T04:55:31;10.10;99.90
56103;DHT22;41970;48.774;9.280;2023-03-14T04:57:58;10.10;99.90
56103;DHT22;41970;48.774;9.280;2023-03-14T05:00:24;10.00;99.90
56103;DHT22;41970;48.774;9.280;2023-03-14T05:02:50;10.00;99.90
56103;DHT22;41970;48.774;9.280;2023-03-14T05:05:15;10.10;99.90
56103;DHT22;41970;48.774;9.280;2023-03-14T05:07:41;10.00;99.90
56103;DHT22;41970;48.774;9.280;2023-03-14T05:10:08;10.00;99.90
56103;DHT22;41970;48.774;9.280;2023-03-14T05:12:34;10.00;99.90
56103;DHT22;41970;48.774;9.280;2023-03-14T05:14:59;10.00;99.90
56103;DHT22;41970;48.774;9.280;2023-03-14T05:17:25;10.10;99.90
56103;DHT22;41970;48.774;9.280;2023-03-14T05:19:51;10.00;99.90
56103;DHT22;41970;48.774;9.280;2023-03-14T05:22:17;9.90;99.90
56103;DHT22;41970;48.774;9.280;2023-03-14T05:24:43;10.00;99.90
56103;DHT22;41970;48.774;9.280;2023-03-14T05:27:09;10.00;99.90
56103;DHT22;41970;48.774;9.280;2023-03-14T05:29:35;10.10;99.90
56103;DHT22;41970;48.774;9.280;2023-03-14T05:32:00;10.20;99.90
56103;DHT22;41970;48.774;9.280;2023-03-14T05:34:26;10.20;99.90
56103;DHT22;41970;48.774;9.280;2023-03-14T05:36:52;10.20;99.90
56103;DHT22;41970;48.774;9.280;2023-03-14T05:39:18;10.30;99.90
56103;DHT22;41970;48.774;9.280;2023-03-14T05:41:44;10.30;99.90
56103;DHT22;41970;48.774;9.280;2023-03-14T05:44:09;10.30;99.90
56103;DHT22;41970;48.774;9.280;2023-03-14T05:46:35;10.30;99.90
56103;DHT22;41970;48.774;9.280;2023-03-14T05:49:01;10.10;99.90
56103;DHT22;41970;48.774;9.280;2023-03-14T05:51:27;10.10;99.90
56103;DHT22;41970;48.774;9.280;2023-03-14T05:53:52;10.00;99.90
56103;DHT22;41970;48.774;9.280;2023-03-14T05:56:18;10.00;99.90
56103;DHT22;41970;48.774;9.280;2023-03-14T05:58:44;10.00;99.90
56103;DHT22;41970;48.774;9.280;2023-03-14T06:01:10;10.00;99.90
56103;DHT22;41970;48.774;9.280;2023-03-14T06:03:35;10.10;99.90
56103;DHT22;41970;48.774;9.280;2023-03-14T06:06:01;10.00;99.90
56103;DHT22;41970;48.774;9.280;2023-03-14T06:08:27;10.10;99.90
56103;DHT22;41970;48.774;9.280;2023-03-14T06:10:54;10.10;99.90
56103;DHT22;41970;48.774;9.280;2023-03-14T06:13:20;10.00;99.90
56103;DHT22;41970;48.774;9.280;2023-03-14T06:15:46;10.00;99.90
56103;DHT22;41970;48.774;9.280;2023-03-14T06:18:11;10.00;99.90
56103;DHT22;41970;48.774;9.280;2023-03-14T06:20:38;10.10;99.90
56103;DHT22;41970;48.774;9.280;2023-03-14T06:23:05;10.10;99.90
56103;DHT22;41970;48.774;9.280;2023-03-14T06:25:32;10.20;99.90
56103;DHT22;41970;48.774;9.280;2023-03-14T06:27:58;10.40;99.90
56103;DHT22;41970;48.774;9.280;2023-03-14T06:30:24;10.50;99.90
56103;DHT22;41970;48.774;9.280;2023-03-14T06:32:50;10.60;99.90
56103;DHT22;41970;48.774;9.280;2023-03-14T06:35:15;10.40;99.90
56103;DHT22;41970;48.774;9.280;2023-03-14T06:37:41;10.30;99.90
56103;DHT22;41970;48.774;9.280;2023-03-14T06:40:11;10.40;99.90
56103;DHT22;41970;48.774;9.280;2023-03-14T06:42:39;10.40;99.90
56103;DHT22;41970;48.774;9.280;2023-03-14T06:45:05;10.20;99.90
56103;DHT22;41970;48.774;9.280;2023-03-14T06:47:31;10.30;99.90
56103;DHT22;41970;48.774;9.280;2023-03-14T06:49:57;10.20;99.90
56103;DHT22;41970;48.774;9.280;2023-03-14T06:52:22;10.20;99.90
56103;DHT22;41970;48.774;9.280;2023-03-14T06:54:48;10.20;99.90
56103;DHT22;41970;48.774;9.280;2023-03-14T06:57:14;10.20;99.90
56103;DHT22;41970;48.774;9.280;2023-03-14T06:59:40;10.10;99.90
56103;DHT22;41970;48.774;9.280;2023-03-14T07:02:11;10.30;99.90
56103;DHT22;41970;48.774;9.280;2023-03-14T07:04:38;10.40;99.90
56103;DHT22;41970;48.774;9.280;2023-03-14T07:07:03;10.50;99.90
56103;DHT22;41970;48.774;9.280;2023-03-14T07:09:30;10.50;99.90
56103;DHT22;41970;48.774;9.280;2023-03-14T07:11:55;10.50;99.90
56103;DHT22;41970;48.774;9.280;2023-03-14T07:14:21;10.60;99.90
56103;DHT22;41970;48.774;9.280;2023-03-14T07:16:47;10.60;99.90
56103;DHT22;41970;48.774;9.280;2023-03-14T07:19:13;10.60;99.90
56103;DHT22;41970;48.774;9.280;2023-03-14T07:21:38;10.50;99.90
56103;DHT22;41970;48.774;9.280;2023-03-14T07:24:04;10.50;99.90
56103;DHT22;41970;48.774;9.280;2023-03-14T07:26:30;10.60;99.90
56103;DHT22;41970;48.774;9.280;2023-03-14T07:28:56;10.70;99.90
56103;DHT22;41970;48.774;9.280;2023-03-14T07:31:22;10.90;99.90
56103;DHT22;41970;48.774;9.280;2023-03-14T07:33:48;11.00;99.90
56103;DHT22;41970;48.774;9.280;2023-03-14T07:36:13;11.10;99.90
56103;DHT22;41970;48.774;9.280;2023-03-14T07:38:39;11.20;99.90
56103;DHT22;41970;48.774;9.280;2023-03-14T07:41:06;11.20;99.90
56103;DHT22;41970;48.774;9.280;2023-03-14T07:43:32;11.30;99.90
56103;DHT22;41970;48.774;9.280;2023-03-14T07:45:58;11.40;99.90
56103;DHT22;41970;48.774;9.280;2023-03-14T07:48:24;11.50;99.90
56103;DHT22;41970;48.774;9.280;2023-03-14T07:50:52;11.40;99.90
56103;DHT22;41970;48.774;9.280;2023-03-14T07:53:19;11.60;99.90
56103;DHT22;41970;48.774;9.280;2023-03-14T07:55:45;11.80;99.90
56103;DHT22;41970;48.774;9.280;2023-03-14T07:58:11;13.10;99.90
56103;DHT22;41970;48.774;9.280;2023-03-14T08:00:38;15.00;99.90
56103;DHT22;41970;48.774;9.280;2023-03-14T08:03:04;16.90;99.90
56103;DHT22;41970;48.774;9.280;2023-03-14T08:05:29;19.20;98.90
56103;DHT22;41970;48.774;9.280;2023-03-14T08:07:55;21.50;94.20
56103;DHT22;41970;48.774;9.280;2023-03-14T08:10:21;22.50;90.00
56103;DHT22;41970;48.774;9.280;2023-03-14T08:12:55;22.60;85.30
56103;DHT22;41970;48.774;9.280;2023-03-14T08:15:22;22.40;84.80
56103;DHT22;41970;48.774;9.280;2023-03-14T08:17:48;22.20;82.10
56103;DHT22;41970;48.774;9.280;2023-03-14T08:20:20;21.30;83.20
56103;DHT22;41970;48.774;9.280;2023-03-14T08:22:46;20.10;85.00
56103;DHT22;41970;48.774;9.280;2023-03-14T08:25:12;19.50;88.70
56103;DHT22;41970;48.774;9.280;2023-03-14T08:27:38;18.40;87.80
56103;DHT22;41970;48.774;9.280;2023-03-14T08:30:09;17.60;91.30
56103;DHT22;41970;48.774;9.280;2023-03-14T08:32:36;17.00;91.70
56103;DHT22;41970;48.774;9.280;2023-03-14T08:35:03;16.50;93.10
56103;DHT22;41970;48.774;9.280;2023-03-14T08:37:31;16.30;94.90
56103;DHT22;41970;48.774;9.280;2023-03-14T08:39:57;16.20;94.50
56103;DHT22;41970;48.774;9.280;2023-03-14T08:42:23;16.10;95.20
56103;DHT22;41970;48.774;9.280;2023-03-14T08:44:49;16.10;94.80
56103;DHT22;41970;48.774;9.280;2023-03-14T08:47:15;16.20;95.40
56103;DHT22;41970;48.774;9.280;2023-03-14T08:49:41;16.80;96.60
56103;DHT22;41970;48.774;9.280;2023-03-14T08:52:07;17.50;94.00
56103;DHT22;41970;48.774;9.280;2023-03-14T08:54:32;18.10;93.60
56103;DHT22;41970;48.774;9.280;2023-03-14T08:56:58;17.90;92.50
56103;DHT22;41970;48.774;9.280;2023-03-14T08:59:24;17.60;92.10
56103;DHT22;41970;48.774;9.280;2023-03-14T09:01:50;17.50;92.50
56103;DHT22;41970;48.774;9.280;2023-03-14T09:04:16;17.40;91.30
56103;DHT22;41970;48.774;9.280;2023-03-14T09:06:42;17.30;91.80
56103;DHT22;41970;48.774;9.280;2023-03-14T09:09:08;17.00;92.40
56103;DHT22;41970;48.774;9.280;2023-03-14T09:11:34;16.80;93.20
56103;DHT22;41970;48.774;9.280;2023-03-14T09:14:00;16.50;92.60
56103;DHT22;41970;48.774;9.280;2023-03-14T09:16:26;16.20;94.10
56103;DHT22;41970;48.774;9.280;2023-03-14T09:18:51;15.60;95.10
56103;DHT22;41970;48.774;9.280;2023-03-14T09:21:21;15.20;95.90
56103;DHT22;41970;48.774;9.280;2023-03-14T09:23:46;15.30;96.10
56103;DHT22;41970;48.774;9.280;2023-03-14T09:26:12;15.30;95.80
56103;DHT22;41970;48.774;9.280;2023-03-14T09:28:38;15.20;96.20
56103;DHT22;41970;48.774;9.280;2023-03-14T09:31:08;15.10;96.90
56103;DHT22;41970;48.774;9.280;2023-03-14T09:33:35;15.30;98.10
56103;DHT22;41970;48.774;9.280;2023-03-14T09:36:01;15.40;98.30
56103;DHT22;41970;48.774;9.280;2023-03-14T09:38:27;15.80;97.40
56103;DHT22;41970;48.774;9.280;2023-03-14T09:40:54;16.00;97.50
56103;DHT22;41970;48.774;9.280;2023-03-14T09:43:21;16.00;96.60
56103;DHT22;41970;48.774;9.280;2023-03-14T09:45:48;16.00;96.50
56103;DHT22;41970;48.774;9.280;2023-03-14T09:48:20;16.10;97.10
56103;DHT22;41970;48.774;9.280;2023-03-14T09:50:53;16.10;95.70
56103;DHT22;41970;48.774;9.280;2023-03-14T09:53:45;16.20;95.70
56103;DHT22;41970;48.774;9.280;2023-03-14T09:56:17;16.30;95.70
56103;DHT22;41970;48.774;9.280;2023-03-14T09:58:50;16.30;95.00
56103;DHT22;41970;48.774;9.280;2023-03-14T10:01:20;15.90;95.50
56103;DHT22;41970;48.774;9.280;2023-03-14T10:03:47;15.60;95.30
56103;DHT22;41970;48.774;9.280;2023-03-14T10:06:14;15.40;95.50
56103;DHT22;41970;48.774;9.280;2023-03-14T10:08:43;15.10;96.00
56103;DHT22;41970;48.774;9.280;2023-03-14T10:11:15;14.90;96.30
56103;DHT22;41970;48.774;9.280;2023-03-14T10:14:09;14.80;96.90
56103;DHT22;41970;48.774;9.280;2023-03-14T10:16:43;14.70;97.40
56103;DHT22;41970;48.774;9.280;2023-03-14T10:19:12;14.60;97.30
56103;DHT22;41970;48.774;9.280;2023-03-14T10:21:43;14.80;97.10
56103;DHT22;41970;48.774;9.280;2023-03-14T10:24:36;15.00;97.70
56103;DHT22;41970;48.774;9.280;2023-03-14T10:27:04;15.10;96.70
56103;DHT22;41970;48.774;9.280;2023-03-14T10:29:32;15.00;97.10
56103;DHT22;41970;48.774;9.280;2023-03-14T10:34:37;15.30;96.60
56103;DHT22;41970;48.774;9.280;2023-03-14T10:37:24;15.40;96.90
56103;DHT22;41970;48.774;9.280;2023-03-14T10:39:59;15.60;97.00
56103;DHT22;41970;48.774;9.280;2023-03-14T10:42:32;15.70;96.30
56103;DHT22;41970;48.774;9.280;2023-03-14T10:45:36;15.80;95.80
56103;DHT22;41970;48.774;9.280;2023-03-14T10:48:19;15.60;96.10
56103;DHT22;41970;48.774;9.280;2023-03-14T10:51:09;15.50;95.60
56103;DHT22;41970;48.774;9.280;2023-03-14T10:53:46;15.40;95.30
56103;DHT22;41970;48.774;9.280;2023-03-14T10:56:23;15.20;96.00
56103;DHT22;41970;48.774;9.280;2023-03-14T10:58:51;15.00;96.20
56103;DHT22;41970;48.774;9.280;2023-03-14T11:01:37;14.90;96.20
56103;DHT22;41970;48.774;9.280;2023-03-14T11:07:05;14.80;96.80
56103;DHT22;41970;48.774;9.280;2023-03-14T11:15:34;14.60;97.90
56103;DHT22;41970;48.774;9.280;2023-03-14T11:26:08;14.20;99.40
56103;DHT22;41970;48.774;9.280;2023-03-14T11:28:38;14.00;99.90
56103;DHT22;41970;48.774;9.280;2023-03-14T11:31:20;14.00;99.90
56103;DHT22;41970;48.774;9.280;2023-03-14T11:36:29;13.90;99.90
56103;DHT22;41970;48.774;9.280;2023-03-14T11:38:58;13.80;99.90
56103;DHT22;41970;48.774;9.280;2023-03-14T11:41:32;13.60;99.90
56103;DHT22;41970;48.774;9.280;2023-03-14T11:44:02;13.40;99.90
56103;DHT22;41970;48.774;9.280;2023-03-14T11:46:36;13.30;99.90
56103;DHT22;41970;48.774;9.280;2023-03-14T11:49:56;13.40;99.90
56103;DHT22;41970;48.774;9.280;2023-03-14T11:52:05;13.40;99.90
56103;DHT22;41970;48.774;9.280;2023-03-14T11:54:39;13.40;99.90
56103;DHT22;41970;48.774;9.280;2023-03-14T11:57:15;13.50;99.90
56103;DHT22;41970;48.774;9.280;2023-03-14T12:10:49;13.10;99.90
56103;DHT22;41970;48.774;9.280;2023-03-14T12:13:15;13.10;99.90
56103;DHT22;41970;48.774;9.280;2023-03-14T12:15:55;13.10;99.90
56103;DHT22;41970;48.774;9.280;2023-03-14T12:18:31;13.10;99.90
56103;DHT22;41970;48.774;9.280;2023-03-14T12:21:00;13.00;99.90
56103;DHT22;41970;48.774;9.280;2023-03-14T12:23:28;12.90;99.90
56103;DHT22;41970;48.774;9.280;2023-03-14T12:26:13;12.90;99.90
56103;DHT22;41970;48.774;9.280;2023-03-14T12:29:29;12.90;99.90
56103;DHT22;41970;48.774;9.280;2023-03-14T12:31:38;12.90;99.90
56103;DHT22;41970;48.774;9.280;2023-03-14T12:42:13;12.60;99.90
56103;DHT22;41970;48.774;9.280;2023-03-14T12:44:48;12.50;99.90
56103;DHT22;41970;48.774;9.280;2023-03-14T12:50:13;12.40;99.90
56103;DHT22;41970;48.774;9.280;2023-03-14T12:53:02;12.20;99.90
56103;DHT22;41970;48.774;9.280;2023-03-14T12:58:11;12.10;98.30
56103;DHT22;41970;48.774;9.280;2023-03-14T13:00:39;12.10;98.10
56103;DHT22;41970;48.774;9.280;2023-03-14T13:05:58;12.00;96.50
56103;DHT22;41970;48.774;9.280;2023-03-14T13:08:44;12.00;96.30
56103;DHT22;41970;48.774;9.280;2023-03-14T13:11:16;12.00;95.60
56103;DHT22;41970;48.774;9.280;2023-03-14T13:13:55;12.00;95.90
56103;DHT22;41970;48.774;9.280;2023-03-14T13:16:22;12.00;93.60
56103;DHT22;41970;48.774;9.280;2023-03-14T13:19:11;11.90;93.60
56103;DHT22;41970;48.774;9.280;2023-03-14T13:21:37;11.90;94.30
56103;DHT22;41970;48.774;9.280;2023-03-14T13:24:05;11.80;92.90
56103;DHT22;41970;48.774;9.280;2023-03-14T13:26:40;11.70;93.50
56103;DHT22;41970;48.774;9.280;2023-03-14T13:29:18;11.70;93.90
56103;DHT22;41970;48.774;9.280;2023-03-14T13:31:50;11.70;94.60
56103;DHT22;41970;48.774;9.280;2023-03-14T13:34:16;11.80;94.90
56103;DHT22;41970;48.774;9.280;2023-03-14T13:36:42;11.90;91.80
56103;DHT22;41970;48.774;9.280;2023-03-14T13:39:19;11.80;92.50
56103;DHT22;41970;48.774;9.280;2023-03-14T13:41:47;11.70;92.60
56103;DHT22;41970;48.774;9.280;2023-03-14T13:44:24;11.70;91.40
56103;DHT22;41970;48.774;9.280;2023-03-14T13:46:51;11.50;91.80
56103;DHT22;41970;48.774;9.280;2023-03-14T13:49:22;11.40;91.60
56103;DHT22;41970;48.774;9.280;2023-03-14T13:51:48;11.20;91.50
56103;DHT22;41970;48.774;9.280;2023-03-14T13:54:16;11.30;91.30
56103;DHT22;41970;48.774;9.280;2023-03-14T13:56:43;11.20;91.80
56103;DHT22;41970;48.774;9.280;2023-03-14T13:59:30;11.10;90.60
56103;DHT22;41970;48.774;9.280;2023-03-14T14:01:58;11.10;91.60
56103;DHT22;41970;48.774;9.280;2023-03-14T14:04:25;11.10;91.90
56103;DHT22;41970;48.774;9.280;2023-03-14T14:06:59;11.00;90.50
56103;DHT22;41970;48.774;9.280;2023-03-14T14:09:52;11.00;90.70
56103;DHT22;41970;48.774;9.280;2023-03-14T14:12:32;11.00;90.40
56103;DHT22;41970;48.774;9.280;2023-03-14T14:15:15;10.90;90.50
56103;DHT22;41970;48.774;9.280;2023-03-14T14:17:57;10.90;90.50
56103;DHT22;41970;48.774;9.280;2023-03-14T14:20:40;10.70;89.30
56103;DHT22;41970;48.774;9.280;2023-03-14T14:23:18;10.70;88.30
56103;DHT22;41970;48.774;9.280;2023-03-14T14:25:45;10.60;87.10
56103;DHT22;41970;48.774;9.280;2023-03-14T14:28:37;10.60;84.30
56103;DHT22;41970;48.774;9.280;2023-03-14T14:31:22;10.60;82.90
56103;DHT22;41970;48.774;9.280;2023-03-14T14:34:00;10.50;84.30
56103;DHT22;41970;48.774;9.280;2023-03-14T14:36:36;10.40;84.80
56103;DHT22;41970;48.774;9.280;2023-03-14T14:39:09;10.40;84.90
56103;DHT22;41970;48.774;9.280;2023-03-14T14:41:40;10.40;86.30
56103;DHT22;41970;48.774;9.280;2023-03-14T14:44:07;10.40;85.40
56103;DHT22;41970;48.774;9.280;2023-03-14T14:46:35;10.50;83.90
56103;DHT22;41970;48.774;9.280;2023-03-14T14:49:27;10.40;84.70
56103;DHT22;41970;48.774;9.280;2023-03-14T14:52:04;10.40;83.60
56103;DHT22;41970;48.774;9.280;2023-03-14T14:54:36;10.30;86.40
56103;DHT22;41970;48.774;9.280;2023-03-14T14:57:05;10.40;85.60
56103;DHT22;41970;48.774;9.280;2023-03-14T14:59:31;10.30;85.70
56103;DHT22;41970;48.774;9.280;2023-03-14T15:02:00;10.30;85.10
56103;DHT22;41970;48.774;9.280;2023-03-14T15:04:27;10.20;86.90
56103;DHT22;41970;48.774;9.280;2023-03-14T15:06:55;10.10;84.40
56103;DHT22;41970;48.774;9.280;2023-03-14T15:09:20;10.10;86.20
56103;DHT22;41970;48.774;9.280;2023-03-14T15:11:47;10.10;86.50
56103;DHT22;41970;48.774;9.280;2023-03-14T15:14:13;10.20;87.30
56103;DHT22;41970;48.774;9.280;2023-03-14T15:16:40;10.20;86.50
56103;DHT22;41970;48.774;9.280;2023-03-14T15:19:35;10.20;85.20
56103;DHT22;41970;48.774;9.280;2023-03-14T15:22:01;10.20;86.70
56103;DHT22;41970;48.774;9.280;2023-03-14T15:24:27;10.30;86.90
56103;DHT22;41970;48.774;9.280;2023-03-14T15:26:52;10.40;87.20
56103;DHT22;41970;48.774;9.280;2023-03-14T15:29:18;10.40;84.00
56103;DHT22;41970;48.774;9.280;2023-03-14T15:31:44;10.40;86.20
56103;DHT22;41970;48.774;9.280;2023-03-14T15:34:10;10.50;84.90
56103;DHT22;41970;48.774;9.280;2023-03-14T15:36:37;10.60;83.50
56103;DHT22;41970;48.774;9.280;2023-03-14T15:39:05;10.60;84.50
56103;DHT22;41970;48.774;9.280;2023-03-14T15:41:31;10.50;86.20
56103;DHT22;41970;48.774;9.280;2023-03-14T15:43:57;10.50;86.10
56103;DHT22;41970;48.774;9.280;2023-03-14T15:46:23;10.40;86.60
56103;DHT22;41970;48.774;9.280;2023-03-14T15:48:50;10.30;86.20
56103;DHT22;41970;48.774;9.280;2023-03-14T15:51:16;10.30;87.50
56103;DHT22;41970;48.774;9.280;2023-03-14T15:53:42;10.20;88.30
56103;DHT22;41970;48.774;9.280;2023-03-14T15:56:14;10.20;86.80
56103;DHT22;41970;48.774;9.280;2023-03-14T15:58:40;10.30;88.10
56103;DHT22;41970;48.774;9.280;2023-03-14T16:01:07;10.30;88.10
56103;DHT22;41970;48.774;9.280;2023-03-14T16:03:36;10.40;87.10
56103;DHT22;41970;48.774;9.280;2023-03-14T16:06:03;10.40;88.90
56103;DHT22;41970;48.774;9.280;2023-03-14T16:08:29;10.40;88.30
56103;DHT22;41970;48.774;9.280;2023-03-14T16:10:58;10.50;85.30
56103;DHT22;41970;48.774;9.280;2023-03-14T16:13:23;10.50;87.60
56103;DHT22;41970;48.774;9.280;2023-03-14T16:16:01;10.30;88.10
56103;DHT22;41970;48.774;9.280;2023-03-14T16:18:29;10.30;87.30
56103;DHT22;41970;48.774;9.280;2023-03-14T16:21:00;10.20;87.80
56103;DHT22;41970;48.774;9.280;2023-03-14T16:23:28;10.20;86.20
56103;DHT22;41970;48.774;9.280;2023-03-14T16:25:54;10.10;88.50
56103;DHT22;41970;48.774;9.280;2023-03-14T16:28:20;10.10;88.10
56103;DHT22;41970;48.774;9.280;2023-03-14T16:30:46;10.00;89.30
56103;DHT22;41970;48.774;9.280;2023-03-14T16:33:13;10.10;90.00
56103;DHT22;41970;48.774;9.280;2023-03-14T16:35:39;10.10;90.00